SBOSBO NUE / EDDN
Speedbird OnlineSpeedbird Online NUE / EDDN

Nuremberg Airport
14:34 2.7°C

Location Nuernberg, Germany
Latitude: 49.498699
Longitude: 11.078056
Web Airport Website | Wikipedia
Altitude 319 Meter / 1046 Feet
Distance 805 KM / 500 Miles
from London.
Time Zone UTC +1 hours (Europe/Berlin)
Codes IATA: NUE
ICAO: EDDN
Currency £1 equals EUR 1.14
Runways
RunwayLength (m)Surface
102700Asphalt
282700Asphalt
Radio
TypeDescriptionFrequency
APPNürnberg Director119.475
ATISATIS123.075
GNDNUERNBERG GROUND118.1
RDRMUNCHEN RADAR129.525
TWRNUERNBERG TOWER118.3
Live ATC
METAR EDDN 311320Z AUTO 25014KT 9999 OVC017 03/M01 Q1023 TEMPO 24015G25KT
TAF TAF COR EDDN 311149Z 3112/0112 25015G25KT 9999 BKN020 TEMPO 3117/0107 BKN010 TEMPO 0110/0112 26020G30KT
Weather As Of 31 Jan 2023 14:31
Description Light intensity shower rain
Wind 26 km/h from West (260°)
Cloud Cover 100%
Precipitation Rain: none, Snow: none
Sunrise 07:49
Sunset 17:08
Lounges Dürer Lounge, Main Terminal
Rotations During the last 90 days there were
49 flights from LHR
49 flights to LHR



Support Speedbird Online

© 2017-2023 Speedbird Online